sensor_id;sensor_type;location;lat;lon;timestamp;pressure;altitude;pressure_sealevel;temperature;humidity
8501;BME280;4288;48.484;10.024;2023-04-05T01:08:31;163976.91;;;21.49;0.00
8501;BME280;4288;48.484;10.024;2023-04-05T08:08:37;95940.06;;;6.05;nan
8501;BME280;4288;48.484;10.024;2023-04-05T08:11:05;95938.66;;;5.68;nan
8501;BME280;4288;48.484;10.024;2023-04-05T08:13:32;95936.84;;;6.11;nan
8501;BME280;4288;48.484;10.024;2023-04-05T08:15:59;95939.34;;;6.20;nan
8501;BME280;4288;48.484;10.024;2023-04-05T08:18:27;95944.69;;;6.36;nan
8501;BME280;4288;48.484;10.024;2023-04-05T08:20:54;95942.88;;;6.55;nan
8501;BME280;4288;48.484;10.024;2023-04-05T08:23:23;95945.66;;;6.00;nan
8501;BME280;4288;48.484;10.024;2023-04-05T08:25:50;95941.69;;;6.37;nan
8501;BME280;4288;48.484;10.024;2023-04-05T08:28:17;95935.34;;;6.42;nan
8501;BME280;4288;48.484;10.024;2023-04-05T08:30:45;95935.75;;;6.90;nan
8501;BME280;4288;48.484;10.024;2023-04-05T08:33:12;95945.75;;;6.19;nan
8501;BME280;4288;48.484;10.024;2023-04-05T08:35:40;95944.41;;;6.25;nan
8501;BME280;4288;48.484;10.024;2023-04-05T08:38:08;95944.66;;;7.33;nan
8501;BME280;4288;48.484;10.024;2023-04-05T08:40:40;95942.66;;;7.30;nan
8501;BME280;4288;48.484;10.024;2023-04-05T08:43:12;95942.28;;;7.66;nan
8501;BME280;4288;48.484;10.024;2023-04-05T08:45:52;95939.53;;;7.43;nan
8501;BME280;4288;48.484;10.024;2023-04-05T08:48:19;95941.72;;;7.95;nan
8501;BME280;4288;48.484;10.024;2023-04-05T08:50:50;95941.81;;;7.79;nan
8501;BME280;4288;48.484;10.024;2023-04-05T08:53:17;95944.59;;;8.25;nan
8501;BME280;4288;48.484;10.024;2023-04-05T08:55:47;95936.59;;;7.86;nan
8501;BME280;4288;48.484;10.024;2023-04-05T08:58:16;95947.75;;;7.73;nan
8501;BME280;4288;48.484;10.024;2023-04-05T09:00:43;95944.56;;;8.05;nan
8501;BME280;4288;48.484;10.024;2023-04-05T09:03:15;95941.41;;;8.19;nan
8501;BME280;4288;48.484;10.024;2023-04-05T09:05:47;95937.88;;;8.79;nan
8501;BME280;4288;48.484;10.024;2023-04-05T09:08:14;95944.06;;;8.19;nan
8501;BME280;4288;48.484;10.024;2023-04-05T09:10:42;95941.84;;;8.89;nan
8501;BME280;4288;48.484;10.024;2023-04-05T09:13:10;95944.09;;;8.87;nan
8501;BME280;4288;48.484;10.024;2023-04-05T09:15:38;95946.34;;;8.62;nan
8501;BME280;4288;48.484;10.024;2023-04-05T09:18:06;95940.34;;;8.91;nan
8501;BME280;4288;48.484;10.024;2023-04-05T09:20:33;95942.97;;;9.14;nan
8501;BME280;4288;48.484;10.024;2023-04-05T09:23:00;95949.16;;;8.69;nan
8501;BME280;4288;48.484;10.024;2023-04-05T09:25:36;95944.22;;;8.71;nan
8501;BME280;4288;48.484;10.024;2023-04-05T09:28:05;95954.00;;;9.42;nan
8501;BME280;4288;48.484;10.024;2023-04-05T09:30:34;95945.28;;;9.42;nan
8501;BME280;4288;48.484;10.024;2023-04-05T09:33:03;95948.19;;;9.33;nan
8501;BME280;4288;48.484;10.024;2023-04-05T09:35:31;95940.81;;;10.12;nan
8501;BME280;4288;48.484;10.024;2023-04-05T09:38:00;95936.50;;;10.41;nan
8501;BME280;4288;48.484;10.024;2023-04-05T09:40:40;95943.78;;;10.47;nan
8501;BME280;4288;48.484;10.024;2023-04-05T09:43:09;95935.50;;;9.86;nan
8501;BME280;4288;48.484;10.024;2023-04-05T09:45:41;95942.03;;;10.62;nan
8501;BME280;4288;48.484;10.024;2023-04-05T09:48:12;95940.22;;;10.73;nan
8501;BME280;4288;48.484;10.024;2023-04-05T09:50:39;95940.22;;;10.73;nan
8501;BME280;4288;48.484;10.024;2023-04-05T09:53:09;95934.94;;;11.38;nan
8501;BME280;4288;48.484;10.024;2023-04-05T09:55:41;95940.94;;;10.66;nan
8501;BME280;4288;48.484;10.024;2023-04-05T09:58:11;95939.31;;;10.18;nan
8501;BME280;4288;48.484;10.024;2023-04-05T10:00:47;95935.75;;;10.88;nan
8501;BME280;4288;48.484;10.024;2023-04-05T10:03:18;95934.22;;;10.43;nan
8501;BME280;4288;48.484;10.024;2023-04-05T10:05:45;95937.22;;;10.38;nan
8501;BME280;4288;48.484;10.024;2023-04-05T10:08:13;95942.03;;;11.13;nan
8501;BME280;4288;48.484;10.024;2023-04-05T10:10:46;95934.53;;;10.34;nan
8501;BME280;4288;48.484;10.024;2023-04-05T10:13:14;95930.69;;;10.32;nan
8501;BME280;4288;48.484;10.024;2023-04-05T10:15:47;95940.50;;;10.21;nan
8501;BME280;4288;48.484;10.024;2023-04-05T10:18:20;95944.81;;;9.66;nan
8501;BME280;4288;48.484;10.024;2023-04-05T10:20:50;95933.63;;;10.63;nan
8501;BME280;4288;48.484;10.024;2023-04-05T10:23:24;95931.72;;;10.60;nan
8501;BME280;4288;48.484;10.024;2023-04-05T10:26:03;95925.72;;;11.32;nan
8501;BME280;4288;48.484;10.024;2023-04-05T10:28:35;95930.72;;;12.30;nan
8501;BME280;4288;48.484;10.024;2023-04-05T10:31:11;95935.34;;;12.40;nan
8501;BME280;4288;48.484;10.024;2023-04-05T10:33:44;95933.34;;;10.32;nan
8501;BME280;4288;48.484;10.024;2023-04-05T10:36:18;95933.41;;;9.69;nan
8501;BME280;4288;48.484;10.024;2023-04-05T10:39:03;95931.19;;;10.44;nan
8501;BME280;4288;48.484;10.024;2023-04-05T10:41:35;95934.81;;;11.92;nan
8501;BME280;4288;48.484;10.024;2023-04-05T10:44:03;95922.53;;;11.74;nan
8501;BME280;4288;48.484;10.024;2023-04-05T10:46:32;95922.03;;;11.54;nan
8501;BME280;4288;48.484;10.024;2023-04-05T10:49:06;95913.44;;;12.06;nan
8501;BME280;4288;48.484;10.024;2023-04-05T10:51:37;95915.28;;;11.88;nan
8501;BME280;4288;48.484;10.024;2023-04-05T10:54:07;95919.28;;;12.58;nan
8501;BME280;4288;48.484;10.024;2023-04-05T10:56:36;95922.34;;;12.81;nan
8501;BME280;4288;48.484;10.024;2023-04-05T10:59:05;95905.50;;;12.63;nan
8501;BME280;4288;48.484;10.024;2023-04-05T11:01:34;95908.44;;;11.91;nan
8501;BME280;4288;48.484;10.024;2023-04-05T11:04:11;95907.34;;;11.27;nan
8501;BME280;4288;48.484;10.024;2023-04-05T11:06:38;95908.75;;;11.07;nan
8501;BME280;4288;48.484;10.024;2023-04-05T11:09:11;95910.66;;;11.75;nan
8501;BME280;4288;48.484;10.024;2023-04-05T11:11:42;95907.03;;;12.74;nan
8501;BME280;4288;48.484;10.024;2023-04-05T11:14:19;95901.25;;;12.30;nan
8501;BME280;4288;48.484;10.024;2023-04-05T11:16:49;95908.09;;;12.10;nan
8501;BME280;4288;48.484;10.024;2023-04-05T11:19:18;95900.31;;;11.70;nan
8501;BME280;4288;48.484;10.024;2023-04-05T11:21:46;95899.97;;;11.78;nan
8501;BME280;4288;48.484;10.024;2023-04-05T11:24:13;95901.56;;;12.00;nan
8501;BME280;4288;48.484;10.024;2023-04-05T11:26:55;95902.81;;;12.66;nan
8501;BME280;4288;48.484;10.024;2023-04-05T11:29:47;95898.59;;;12.58;nan
8501;BME280;4288;48.484;10.024;2023-04-05T11:32:21;95900.88;;;12.52;nan
8501;BME280;4288;48.484;10.024;2023-04-05T11:34:58;95900.13;;;12.41;nan
8501;BME280;4288;48.484;10.024;2023-04-05T11:38:05;95896.66;;;13.25;nan
8501;BME280;4288;48.484;10.024;2023-04-05T11:40:35;95887.50;;;12.60;nan
8501;BME280;4288;48.484;10.024;2023-04-05T11:43:05;95890.19;;;12.77;nan
8501;BME280;4288;48.484;10.024;2023-04-05T11:45:35;95889.78;;;12.50;nan
8501;BME280;4288;48.484;10.024;2023-04-05T11:48:09;95887.09;;;13.00;nan
8501;BME280;4288;48.484;10.024;2023-04-05T11:50:38;95882.47;;;12.05;nan
8501;BME280;4288;48.484;10.024;2023-04-05T11:53:13;95879.44;;;13.12;nan
8501;BME280;4288;48.484;10.024;2023-04-05T11:55:42;95882.09;;;13.09;nan
8501;BME280;4288;48.484;10.024;2023-04-05T11:58:14;95880.97;;;12.75;nan
8501;BME280;4288;48.484;10.024;2023-04-05T12:00:43;95867.94;;;12.84;nan
8501;BME280;4288;48.484;10.024;2023-04-05T12:03:12;95866.66;;;13.55;nan
8501;BME280;4288;48.484;10.024;2023-04-05T12:05:48;95867.09;;;13.39;nan
8501;BME280;4288;48.484;10.024;2023-04-05T12:08:16;95874.25;;;13.71;nan
8501;BME280;4288;48.484;10.024;2023-04-05T12:10:43;95867.16;;;12.97;nan
8501;BME280;4288;48.484;10.024;2023-04-05T12:13:11;95868.13;;;11.59;nan
8501;BME280;4288;48.484;10.024;2023-04-05T12:15:39;95862.91;;;11.98;nan
8501;BME280;4288;48.484;10.024;2023-04-05T12:18:13;95865.16;;;11.78;nan
8501;BME280;4288;48.484;10.024;2023-04-05T12:20:41;95852.84;;;10.84;nan
8501;BME280;4288;48.484;10.024;2023-04-05T12:23:08;95861.06;;;10.58;nan
8501;BME280;4288;48.484;10.024;2023-04-05T12:25:36;95847.25;;;12.67;nan
8501;BME280;4288;48.484;10.024;2023-04-05T12:28:05;95851.88;;;12.41;nan
8501;BME280;4288;48.484;10.024;2023-04-05T12:30:34;95847.25;;;12.67;nan
8501;BME280;4288;48.484;10.024;2023-04-05T12:33:07;95849.78;;;14.20;nan
8501;BME280;4288;48.484;10.024;2023-04-05T12:35:36;95838.94;;;14.38;nan
8501;BME280;4288;48.484;10.024;2023-04-05T12:38:05;95849.81;;;14.16;nan
8501;BME280;4288;48.484;10.024;2023-04-05T12:40:35;95840.66;;;13.31;nan
8501;BME280;4288;48.484;10.024;2023-04-05T12:43:03;95838.06;;;12.61;nan
8501;BME280;4288;48.484;10.024;2023-04-05T12:45:31;95847.53;;;14.15;nan
8501;BME280;4288;48.484;10.024;2023-04-05T12:48:07;95840.38;;;14.53;nan
8501;BME280;4288;48.484;10.024;2023-04-05T12:50:42;95838.28;;;13.40;nan
8501;BME280;4288;48.484;10.024;2023-04-05T13:15:31;163643.22;;;-143.23;0.00
8501;BME280;4288;48.484;10.024;2023-04-05T18:59:23;69197.78;;;21.41;100.00
